KSIK/SIK METAR and TAF weather

Enter ICAO airport designator
Station Type Date Time Source
KSIK METAR 2023/01/30 11:55 UTC NOAA

KSIK 301155Z AUTO 34012G15KT 5SM BR OVC006 00/00 A3028 RMK AO2


Station Type Date Time Source
KSIK Decoded METAR 2023/01/30 11:55 UTC NOAA

Station name not available
Jan 30, 2023 - 06:55 AM EST / 2023.01.30 1155 UTC
Wind: from the NNW (340 degrees) at 14 MPH (12 KT) gusting to 17 MPH (15 KT):0
Visibility: 5 mile(s):0
Sky conditions: overcast
Weather: mist
Temperature: 32 F (0 C)
Windchill: 21 F (-6 C):1
Dew Point: 32 F (0 C)
Relative Humidity: 100%
Pressure (altimeter): 30.28 in. Hg (1025 hPa)
ob: KSIK 301155Z AUTO 34012G15KT 5SM BR OVC006 00/00 A3028 RMK AO2
cycle: 12

Station Type Date Time Source
KSIK TAF UTC NOAA

Error!

Example: see airport list